sensor_id;sensor_type;location;lat;lon;timestamp;pressure;altitude;pressure_sealevel;temperature;humidity
27980;BME280;15315;50.836;4.430;2022-12-20T00:07:48;100884.19;;;14.37;100.00
27980;BME280;15315;50.836;4.430;2022-12-20T00:17:48;100864.69;;;14.00;100.00
27980;BME280;15315;50.836;4.430;2022-12-20T00:27:49;100853.75;;;14.33;100.00
27980;BME280;15315;50.836;4.430;2022-12-20T00:37:49;100839.09;;;14.24;100.00
27980;BME280;15315;50.836;4.430;2022-12-20T00:47:49;100832.53;;;14.38;100.00
27980;BME280;15315;50.836;4.430;2022-12-20T00:57:50;100798.13;;;14.50;100.00
27980;BME280;15315;50.836;4.430;2022-12-20T01:07:50;100797.91;;;13.99;100.00
27980;BME280;15315;50.836;4.430;2022-12-20T01:17:50;100814.16;;;14.42;100.00
27980;BME280;15315;50.836;4.430;2022-12-20T01:27:51;100798.72;;;14.21;100.00
27980;BME280;15315;50.836;4.430;2022-12-20T01:37:51;100790.06;;;13.74;100.00
27980;BME280;15315;50.836;4.430;2022-12-20T01:47:52;100786.03;;;13.46;100.00
27980;BME280;15315;50.836;4.430;2022-12-20T01:58:02;100803.75;;;13.39;100.00
27980;BME280;15315;50.836;4.430;2022-12-20T02:08:05;100798.31;;;12.94;100.00
27980;BME280;15315;50.836;4.430;2022-12-20T02:18:42;100806.34;;;13.18;100.00
27980;BME280;15315;50.836;4.430;2022-12-20T02:39:40;100785.81;;;14.03;100.00
27980;BME280;15315;50.836;4.430;2022-12-20T02:49:44;100795.25;;;14.19;100.00
27980;BME280;15315;50.836;4.430;2022-12-20T02:59:56;100781.22;;;13.83;100.00
27980;BME280;15315;50.836;4.430;2022-12-20T03:10:01;100768.94;;;13.68;100.00
27980;BME280;15315;50.836;4.430;2022-12-20T03:20:03;100776.19;;;14.10;100.00
27980;BME280;15315;50.836;4.430;2022-12-20T03:30:05;100768.03;;;13.78;100.00
27980;BME280;15315;50.836;4.430;2022-12-20T03:40:07;100763.13;;;14.04;100.00
27980;BME280;15315;50.836;4.430;2022-12-20T03:50:08;100744.31;;;13.71;100.00
27980;BME280;15315;50.836;4.430;2022-12-20T04:00:08;100743.75;;;13.88;100.00
27980;BME280;15315;50.836;4.430;2022-12-20T04:10:10;100713.88;;;13.99;100.00
27980;BME280;15315;50.836;4.430;2022-12-20T04:20:13;100701.09;;;13.90;100.00
27980;BME280;15315;50.836;4.430;2022-12-20T04:30:20;100700.16;;;13.80;100.00
27980;BME280;15315;50.836;4.430;2022-12-20T04:40:20;100679.00;;;14.05;100.00
27980;BME280;15315;50.836;4.430;2022-12-20T04:50:20;100669.63;;;13.78;100.00
27980;BME280;15315;50.836;4.430;2022-12-20T05:00:21;100661.66;;;13.97;100.00
27980;BME280;15315;50.836;4.430;2022-12-20T05:10:21;100658.94;;;13.97;100.00
27980;BME280;15315;50.836;4.430;2022-12-20T05:20:21;100653.13;;;13.81;100.00
27980;BME280;15315;50.836;4.430;2022-12-20T05:30:24;100640.25;;;13.51;100.00
27980;BME280;15315;50.836;4.430;2022-12-20T05:40:24;100608.47;;;13.64;100.00
27980;BME280;15315;50.836;4.430;2022-12-20T05:50:25;100603.59;;;13.79;100.00
27980;BME280;15315;50.836;4.430;2022-12-20T06:00:25;100622.25;;;13.93;100.00
27980;BME280;15315;50.836;4.430;2022-12-20T06:10:25;100606.31;;;13.99;100.00
27980;BME280;15315;50.836;4.430;2022-12-20T06:20:26;100587.00;;;14.34;100.00
27980;BME280;15315;50.836;4.430;2022-12-20T06:30:27;100592.31;;;14.45;100.00
27980;BME280;15315;50.836;4.430;2022-12-20T06:40:27;100602.28;;;13.94;100.00
27980;BME280;15315;50.836;4.430;2022-12-20T06:50:28;100606.78;;;14.04;100.00
27980;BME280;15315;50.836;4.430;2022-12-20T07:00:28;100635.75;;;13.83;100.00
27980;BME280;15315;50.836;4.430;2022-12-20T07:10:33;100635.94;;;13.71;100.00
27980;BME280;15315;50.836;4.430;2022-12-20T07:20:34;100646.69;;;13.82;100.00
27980;BME280;15315;50.836;4.430;2022-12-20T07:30:35;100648.28;;;13.84;100.00
27980;BME280;15315;50.836;4.430;2022-12-20T07:40:39;100670.19;;;13.49;100.00
27980;BME280;15315;50.836;4.430;2022-12-20T07:50:41;100663.81;;;13.39;100.00
27980;BME280;15315;50.836;4.430;2022-12-20T08:00:41;100653.06;;;12.95;100.00
27980;BME280;15315;50.836;4.430;2022-12-20T08:10:42;100636.28;;;13.66;100.00
27980;BME280;15315;50.836;4.430;2022-12-20T08:20:43;100635.28;;;13.78;100.00
27980;BME280;15315;50.836;4.430;2022-12-20T08:30:43;100630.25;;;13.94;100.00
27980;BME280;15315;50.836;4.430;2022-12-20T08:40:43;100634.72;;;13.84;100.00
27980;BME280;15315;50.836;4.430;2022-12-20T08:50:44;100632.03;;;14.26;100.00
27980;BME280;15315;50.836;4.430;2022-12-20T09:00:45;100628.91;;;14.30;100.00
27980;BME280;15315;50.836;4.430;2022-12-20T09:10:46;100619.81;;;14.31;100.00
27980;BME280;15315;50.836;4.430;2022-12-20T09:20:46;100624.88;;;14.24;100.00
27980;BME280;15315;50.836;4.430;2022-12-20T09:30:47;100619.25;;;14.37;100.00
27980;BME280;15315;50.836;4.430;2022-12-20T09:40:51;100620.69;;;14.11;100.00
27980;BME280;15315;50.836;4.430;2022-12-20T09:50:56;100619.00;;;14.19;100.00
27980;BME280;15315;50.836;4.430;2022-12-20T10:01:13;100641.06;;;13.74;100.00
27980;BME280;15315;50.836;4.430;2022-12-20T10:22:08;100625.16;;;13.80;100.00
27980;BME280;15315;50.836;4.430;2022-12-20T10:32:16;100623.38;;;14.32;100.00
27980;BME280;15315;50.836;4.430;2022-12-20T10:42:24;100616.94;;;14.33;100.00
27980;BME280;15315;50.836;4.430;2022-12-20T10:52:25;100610.63;;;13.49;100.00
27980;BME280;15315;50.836;4.430;2022-12-20T11:02:37;100603.56;;;13.15;100.00
27980;BME280;15315;50.836;4.430;2022-12-20T11:12:54;100604.44;;;13.05;100.00
27980;BME280;15315;50.836;4.430;2022-12-20T11:54:18;100581.28;;;13.23;100.00
27980;BME280;15315;50.836;4.430;2022-12-20T12:04:29;100564.72;;;13.05;100.00
27980;BME280;15315;50.836;4.430;2022-12-20T12:24:47;100544.13;;;13.56;100.00
27980;BME280;15315;50.836;4.430;2022-12-20T12:45:27;100523.81;;;12.87;100.00
27980;BME280;15315;50.836;4.430;2022-12-20T13:05:37;100530.09;;;13.51;100.00
27980;BME280;15315;50.836;4.430;2022-12-20T13:25:47;100535.38;;;13.53;100.00
27980;BME280;15315;50.836;4.430;2022-12-20T13:36:00;100537.06;;;13.86;100.00
27980;BME280;15315;50.836;4.430;2022-12-20T14:06:26;100522.22;;;13.48;100.00
27980;BME280;15315;50.836;4.430;2022-12-20T14:16:31;100522.31;;;13.79;100.00
27980;BME280;15315;50.836;4.430;2022-12-20T14:26:33;100511.94;;;13.63;100.00
27980;BME280;15315;50.836;4.430;2022-12-20T14:36:38;100513.63;;;14.05;100.00
27980;BME280;15315;50.836;4.430;2022-12-20T14:46:46;100496.69;;;14.13;100.00
27980;BME280;15315;50.836;4.430;2022-12-20T14:56:48;100500.88;;;13.96;100.00
27980;BME280;15315;50.836;4.430;2022-12-20T15:06:52;100493.72;;;13.86;100.00
27980;BME280;15315;50.836;4.430;2022-12-20T15:16:53;100501.56;;;13.68;100.00
27980;BME280;15315;50.836;4.430;2022-12-20T15:26:54;100501.75;;;13.76;100.00
27980;BME280;15315;50.836;4.430;2022-12-20T15:36:55;100495.28;;;13.47;100.00
27980;BME280;15315;50.836;4.430;2022-12-20T15:46:59;100506.06;;;13.58;100.00
27980;BME280;15315;50.836;4.430;2022-12-20T15:57:01;100491.44;;;13.29;100.00
27980;BME280;15315;50.836;4.430;2022-12-20T16:07:02;100501.50;;;13.58;100.00
27980;BME280;15315;50.836;4.430;2022-12-20T16:17:02;100494.38;;;13.78;100.00
27980;BME280;15315;50.836;4.430;2022-12-20T16:27:03;100490.16;;;13.33;100.00
27980;BME280;15315;50.836;4.430;2022-12-20T16:37:04;100485.50;;;13.35;100.00
27980;BME280;15315;50.836;4.430;2022-12-20T16:47:05;100493.25;;;13.81;100.00
27980;BME280;15315;50.836;4.430;2022-12-20T16:57:05;100492.66;;;13.77;100.00
27980;BME280;15315;50.836;4.430;2022-12-20T17:07:06;100495.19;;;13.99;100.00
27980;BME280;15315;50.836;4.430;2022-12-20T17:17:06;100487.91;;;13.70;100.00
27980;BME280;15315;50.836;4.430;2022-12-20T17:27:09;100499.00;;;13.67;100.00
27980;BME280;15315;50.836;4.430;2022-12-20T17:37:09;100490.13;;;13.85;100.00
27980;BME280;15315;50.836;4.430;2022-12-20T17:47:10;100496.13;;;13.89;100.00
27980;BME280;15315;50.836;4.430;2022-12-20T17:57:12;100490.09;;;13.76;100.00
27980;BME280;15315;50.836;4.430;2022-12-20T18:07:13;100501.56;;;13.68;100.00
27980;BME280;15315;50.836;4.430;2022-12-20T18:17:14;100506.81;;;13.60;100.00
27980;BME280;15315;50.836;4.430;2022-12-20T18:27:14;100512.22;;;13.60;100.00
27980;BME280;15315;50.836;4.430;2022-12-20T18:37:16;100505.34;;;13.56;100.00
27980;BME280;15315;50.836;4.430;2022-12-20T18:47:16;100511.94;;;13.11;100.00
27980;BME280;15315;50.836;4.430;2022-12-20T18:57:17;100510.28;;;13.92;100.00
27980;BME280;15315;50.836;4.430;2022-12-20T19:07:17;100506.59;;;13.93;100.00
27980;BME280;15315;50.836;4.430;2022-12-20T19:17:19;100512.78;;;13.84;100.00
27980;BME280;15315;50.836;4.430;2022-12-20T19:27:19;100505.47;;;13.75;100.00
27980;BME280;15315;50.836;4.430;2022-12-20T19:37:19;100516.91;;;13.79;100.00
27980;BME280;15315;50.836;4.430;2022-12-20T19:47:20;100525.16;;;13.98;100.00
27980;BME280;15315;50.836;4.430;2022-12-20T19:57:21;100527.97;;;13.96;100.00
27980;BME280;15315;50.836;4.430;2022-12-20T20:07:21;100533.03;;;13.59;100.00
27980;BME280;15315;50.836;4.430;2022-12-20T20:17:21;100538.91;;;13.85;100.00
27980;BME280;15315;50.836;4.430;2022-12-20T20:27:22;100526.22;;;14.06;100.00
27980;BME280;15315;50.836;4.430;2022-12-20T20:37:22;100532.34;;;14.08;100.00
27980;BME280;15315;50.836;4.430;2022-12-20T20:47:22;100538.09;;;14.24;100.00
27980;BME280;15315;50.836;4.430;2022-12-20T20:57:23;100522.81;;;14.14;100.00
27980;BME280;15315;50.836;4.430;2022-12-20T21:07:23;100538.28;;;14.53;100.00
27980;BME280;15315;50.836;4.430;2022-12-20T21:17:24;100538.44;;;14.61;100.00
27980;BME280;15315;50.836;4.430;2022-12-20T21:27:24;100542.59;;;14.35;100.00
27980;BME280;15315;50.836;4.430;2022-12-20T21:37:28;100548.59;;;14.69;100.00
27980;BME280;15315;50.836;4.430;2022-12-20T21:47:29;100548.81;;;14.47;100.00
27980;BME280;15315;50.836;4.430;2022-12-20T21:57:29;100550.34;;;14.70;100.00
27980;BME280;15315;50.836;4.430;2022-12-20T22:07:29;100579.59;;;14.46;100.00
27980;BME280;15315;50.836;4.430;2022-12-20T22:17:30;100572.31;;;14.37;100.00
27980;BME280;15315;50.836;4.430;2022-12-20T22:27:31;100561.28;;;14.29;100.00
27980;BME280;15315;50.836;4.430;2022-12-20T22:37:31;100573.88;;;14.60;100.00
27980;BME280;15315;50.836;4.430;2022-12-20T22:47:32;100593.34;;;14.23;100.00
27980;BME280;15315;50.836;4.430;2022-12-20T22:57:33;100591.25;;;14.06;100.00
27980;BME280;15315;50.836;4.430;2022-12-20T23:07:34;100590.19;;;13.98;100.00
27980;BME280;15315;50.836;4.430;2022-12-20T23:17:34;100589.59;;;13.74;100.00
27980;BME280;15315;50.836;4.430;2022-12-20T23:27:35;100582.25;;;14.27;100.00
27980;BME280;15315;50.836;4.430;2022-12-20T23:37:36;100586.28;;;14.62;100.00
27980;BME280;15315;50.836;4.430;2022-12-20T23:47:36;100598.38;;;14.49;100.00
27980;BME280;15315;50.836;4.430;2022-12-20T23:57:37;100587.81;;;14.86;100.00
